Time;durP1;ratioP1;P1;durP2;ratioP2;P2;SDS_P1;SDS_P2;PMS_P1;PMS_P2;Temp;Humidity;BMP_temperature;BMP_pressure;BME280_temperature;BME280_humidity;BME280_pressure;Samples;Min_cycle;Max_cycle;Signal;HPM_P1;HPM_P2
2021/09/30 00:01:39;;;;;;;3.65;0.93;;;;;;;;;;4884920;28;20025;-57
2021/09/30 00:04:05;;;;;;;2.28;0.70;;;;;;;;;;4882398;28;20704;-57
2021/09/30 00:06:30;;;;;;;3.22;0.65;;;;;;;;;;4886910;28;20388;-58
2021/09/30 00:08:56;;;;;;;1.80;0.50;;;;;;;;;;4885901;28;20662;-57
2021/09/30 00:11:32;;;;;;;2.88;0.63;;;;;;;;;;4885211;28;20022;-57
2021/09/30 00:16:35;;;;;;;2.33;0.57;;;;;;;;;;4884640;28;20492;-57
2021/09/30 00:45:50;;;;;;;1.80;0.50;;;;;;;;;;4882802;28;20056;-57
2021/09/30 00:50:54;;;;;;;3.63;0.60;;;;;;;;;;4888441;28;24387;-57
2021/09/30 03:00:48;;;;;;;2.47;0.43;;;;;;;;;;4867012;28;20607;-57
2021/09/30 03:03:16;;;;;;;3.05;0.70;;;;;;;;;;4889946;28;20071;-57
2021/09/30 03:05:41;;;;;;;2.75;0.55;;;;;;;;;;4890234;28;20022;-58
2021/09/30 03:08:06;;;;;;;2.65;0.70;;;;;;;;;;4891506;28;20876;-57
2021/09/30 03:10:32;;;;;;;2.65;0.68;;;;;;;;;;4891331;28;20083;-57
2021/09/30 03:12:59;;;;;;;2.55;0.50;;;;;;;;;;4887795;28;20030;-57
2021/09/30 03:20:53;;;;;;;2.50;0.55;;;;;;;;;;4890723;28;20060;-58
2021/09/30 03:23:22;;;;;;;2.63;0.60;;;;;;;;;;4885834;28;20042;-56
2021/09/30 03:25:49;;;;;;;;;;;;;;;;;;4891777;28;20768;-57
2021/09/30 03:28:16;;;;;;;2.05;0.60;;;;;;;;;;4888207;28;19963;-58
2021/09/30 03:30:41;;;;;;;2.60;0.68;;;;;;;;;;4886233;28;20045;-56
2021/09/30 03:33:07;;;;;;;2.35;0.60;;;;;;;;;;4889024;28;20448;-57
2021/09/30 03:35:33;;;;;;;1.67;0.50;;;;;;;;;;4886614;28;20567;-57
2021/09/30 03:37:59;;;;;;;2.08;0.60;;;;;;;;;;4890724;28;20025;-57
2021/09/30 03:40:25;;;;;;;2.25;0.50;;;;;;;;;;4886933;28;20037;-60
2021/09/30 03:42:50;;;;;;;2.87;0.53;;;;;;;;;;4887221;28;20029;-59
2021/09/30 03:45:15;;;;;;;3.80;0.70;;;;;;;;;;4891639;28;20269;-58
2021/09/30 03:47:41;;;;;;;2.38;0.60;;;;;;;;;;4890579;28;21000;-58
2021/09/30 03:50:10;;;;;;;2.15;0.68;;;;;;;;;;4882360;28;20042;-60
2021/09/30 04:00:04;;;;;;;1.90;0.60;;;;;;;;;;4883887;28;20456;-57
2021/09/30 04:02:29;;;;;;;2.58;0.63;;;;;;;;;;4885829;28;20030;-58
2021/09/30 04:04:54;;;;;;;1.33;0.47;;;;;;;;;;4885893;28;20811;-58
2021/09/30 04:07:20;;;;;;;2.70;0.50;;;;;;;;;;4885213;28;20079;-57
2021/09/30 04:09:45;;;;;;;2.72;0.60;;;;;;;;;;4888077;28;21354;-56
2021/09/30 04:12:12;;;;;;;2.85;0.52;;;;;;;;;;4883126;28;20044;-60
2021/09/30 04:14:38;;;;;;;3.63;0.63;;;;;;;;;;4886961;28;20037;-58
2021/09/30 04:17:03;;;;;;;3.75;0.70;;;;;;;;;;4887181;28;21011;-59
2021/09/30 04:19:28;;;;;;;2.92;0.68;;;;;;;;;;4887240;28;20891;-57
2021/09/30 04:21:54;;;;;;;2.63;0.60;;;;;;;;;;4885827;28;20041;-57
2021/09/30 04:24:20;;;;;;;3.13;0.70;;;;;;;;;;4886125;28;20261;-57
2021/09/30 04:26:46;;;;;;;2.60;0.50;;;;;;;;;;4885925;28;20935;-58
2021/09/30 04:29:11;;;;;;;2.38;0.57;;;;;;;;;;4886470;28;20029;-59
2021/09/30 04:31:36;;;;;;;3.00;0.73;;;;;;;;;;4886254;28;20659;-58
2021/09/30 04:34:02;;;;;;;2.38;0.50;;;;;;;;;;4885786;28;20029;-59
2021/09/30 04:36:27;;;;;;;2.25;0.70;;;;;;;;;;4884605;28;20959;-57
2021/09/30 04:38:53;;;;;;;2.15;0.60;;;;;;;;;;4887951;28;20116;-58
2021/09/30 04:41:19;;;;;;;2.30;0.60;;;;;;;;;;4900673;28;20369;-57
2021/09/30 04:43:45;;;;;;;4.50;0.70;;;;;;;;;;4882938;28;20057;-57
2021/09/30 04:46:11;;;;;;;4.60;0.60;;;;;;;;;;4887994;28;20029;-57
2021/09/30 04:48:37;;;;;;;3.38;0.55;;;;;;;;;;4882547;28;20034;-58
2021/09/30 04:51:02;;;;;;;2.85;0.70;;;;;;;;;;4887607;28;24188;-56
2021/09/30 04:53:27;;;;;;;3.45;0.57;;;;;;;;;;4886784;28;20048;-57
2021/09/30 04:55:52;;;;;;;2.92;0.70;;;;;;;;;;4888558;28;20032;-57
2021/09/30 04:58:18;;;;;;;3.10;0.60;;;;;;;;;;4888493;28;20034;-57
2021/09/30 05:00:43;;;;;;;2.63;0.80;;;;;;;;;;4887863;28;21071;-57
2021/09/30 05:03:08;;;;;;;3.72;0.60;;;;;;;;;;4892915;28;20044;-56
2021/09/30 05:05:33;;;;;;;2.53;0.60;;;;;;;;;;4891499;28;20103;-57
2021/09/30 05:07:59;;;;;;;2.27;0.70;;;;;;;;;;4893567;28;20056;-57
2021/09/30 05:10:31;;;;;;;3.65;0.73;;;;;;;;;;4888040;28;24341;-57
2021/09/30 05:12:59;;;;;;;4.43;0.80;;;;;;;;;;4892350;28;20445;-58
2021/09/30 05:15:25;;;;;;;3.55;0.90;;;;;;;;;;4888787;28;20037;-57
2021/09/30 05:17:50;;;;;;;4.50;1.10;;;;;;;;;;4892023;28;20040;-57
2021/09/30 05:20:15;;;;;;;5.33;1.10;;;;;;;;;;4894340;28;20770;-58
2021/09/30 05:22:40;;;;;;;6.80;1.30;;;;;;;;;;4892113;28;21048;-57
2021/09/30 05:25:06;;;;;;;6.40;1.03;;;;;;;;;;4893265;28;20025;-58
2021/09/30 05:27:31;;;;;;;3.25;0.90;;;;;;;;;;4891359;28;21760;-57
2021/09/30 05:29:56;;;;;;;4.03;0.97;;;;;;;;;;4889322;28;20484;-57
2021/09/30 05:32:22;;;;;;;4.80;1.02;;;;;;;;;;4887178;28;20957;-57
2021/09/30 05:34:47;;;;;;;6.13;1.30;;;;;;;;;;4887907;28;20030;-57
2021/09/30 05:37:12;;;;;;;9.10;1.50;;;;;;;;;;4891737;28;20030;-57
2021/09/30 05:39:39;;;;;;;5.50;1.40;;;;;;;;;;4889105;28;20037;-57
2021/09/30 05:42:04;;;;;;;5.95;1.30;;;;;;;;;;4893611;28;20265;-58
2021/09/30 05:44:32;;;;;;;20.13;2.85;;;;;;;;;;4891114;28;20033;-59
2021/09/30 05:46:57;;;;;;;12.55;1.60;;;;;;;;;;4889720;28;20330;-55
2021/09/30 05:49:23;;;;;;;12.80;1.57;;;;;;;;;;4891237;28;20751;-57
2021/09/30 05:51:48;;;;;;;4.70;1.38;;;;;;;;;;4890311;28;20358;-58
2021/09/30 05:54:13;;;;;;;6.45;1.13;;;;;;;;;;4887589;28;21667;-57
2021/09/30 05:56:39;;;;;;;4.32;0.93;;;;;;;;;;4888281;28;21828;-56
2021/09/30 05:59:04;;;;;;;3.95;1.10;;;;;;;;;;4889627;28;20388;-58
2021/09/30 06:12:22;;;;;;;5.60;1.00;;;;;;;;;;4889694;28;24592;-58
2021/09/30 06:14:48;;;;;;;4.00;1.20;;;;;;;;;;4885921;28;20342;-58
2021/09/30 06:17:13;;;;;;;3.90;0.98;;;;;;;;;;4902008;28;20850;-57
2021/09/30 06:19:38;;;;;;;5.10;1.00;;;;;;;;;;4890281;28;20156;-57
2021/09/30 06:22:09;;;;;;;5.13;1.08;;;;;;;;;;4889531;28;20591;-58
2021/09/30 06:24:35;;;;;;;5.55;0.98;;;;;;;;;;4889562;28;20062;-57
2021/09/30 06:27:01;;;;;;;3.15;0.93;;;;;;;;;;4885982;28;20080;-57
2021/09/30 06:29:26;;;;;;;3.90;1.00;;;;;;;;;;4889603;28;20039;-58
2021/09/30 06:31:52;;;;;;;4.22;1.00;;;;;;;;;;4888400;28;21090;-57
2021/09/30 06:34:17;;;;;;;4.47;0.90;;;;;;;;;;4888787;28;20463;-58
2021/09/30 06:36:42;;;;;;;5.18;1.10;;;;;;;;;;4887184;28;20645;-58
2021/09/30 06:39:08;;;;;;;4.10;1.02;;;;;;;;;;4887791;28;21234;-57
2021/09/30 06:41:33;;;;;;;6.70;1.10;;;;;;;;;;4889417;28;20026;-57
2021/09/30 06:43:58;;;;;;;5.80;1.00;;;;;;;;;;4887917;28;20188;-58
2021/09/30 06:46:24;;;;;;;3.30;0.90;;;;;;;;;;4891379;28;20030;-58
2021/09/30 06:48:49;;;;;;;3.72;0.93;;;;;;;;;;4883362;28;20514;-56
2021/09/30 06:51:15;;;;;;;4.75;0.98;;;;;;;;;;4890611;28;20647;-58
2021/09/30 06:53:40;;;;;;;3.33;0.80;;;;;;;;;;4888548;28;20191;-57
2021/09/30 06:56:08;;;;;;;2.60;0.65;;;;;;;;;;4889108;28;20299;-57
2021/09/30 06:58:40;;;;;;;5.57;1.00;;;;;;;;;;4884891;28;20025;-57
2021/09/30 07:01:08;;;;;;;5.70;1.02;;;;;;;;;;4888699;28;20311;-57
2021/09/30 07:03:33;;;;;;;3.60;1.00;;;;;;;;;;4890354;28;20085;-58
2021/09/30 07:05:58;;;;;;;3.73;0.90;;;;;;;;;;4884555;28;20038;-57
2021/09/30 07:08:23;;;;;;;4.63;1.00;;;;;;;;;;4887380;28;20277;-58
2021/09/30 07:10:49;;;;;;;6.63;1.00;;;;;;;;;;4888034;28;20993;-57
2021/09/30 07:13:14;;;;;;;3.00;0.90;;;;;;;;;;4891073;28;20030;-58
2021/09/30 07:15:40;;;;;;;5.18;1.10;;;;;;;;;;4885829;28;20026;-58
2021/09/30 07:18:18;;;;;;;3.40;0.95;;;;;;;;;;4888268;28;23616;-59
2021/09/30 07:20:43;;;;;;;5.80;1.10;;;;;;;;;;4902124;28;20656;-55
2021/09/30 07:23:08;;;;;;;5.22;0.80;;;;;;;;;;4886336;28;20321;-57
2021/09/30 07:25:34;;;;;;;3.00;0.88;;;;;;;;;;4888031;28;20017;-57
2021/09/30 07:27:59;;;;;;;2.97;0.90;;;;;;;;;;4892411;28;20030;-58
2021/09/30 07:30:24;;;;;;;4.40;0.87;;;;;;;;;;4890672;28;20041;-58
2021/09/30 07:32:49;;;;;;;4.30;0.87;;;;;;;;;;4893659;28;20284;-58
2021/09/30 07:35:15;;;;;;;5.13;0.90;;;;;;;;;;4893485;28;20400;-57
2021/09/30 07:37:40;;;;;;;5.20;1.02;;;;;;;;;;4893348;28;21132;-57
2021/09/30 07:40:06;;;;;;;6.07;1.00;;;;;;;;;;4895972;28;20110;-58
2021/09/30 07:42:31;;;;;;;3.38;0.80;;;;;;;;;;4898825;28;20041;-57
2021/09/30 07:44:56;;;;;;;3.17;0.73;;;;;;;;;;4897840;28;20783;-57
2021/09/30 07:47:24;;;;;;;4.97;0.82;;;;;;;;;;4892084;28;20426;-57
2021/09/30 07:49:49;;;;;;;4.05;1.00;;;;;;;;;;4893395;28;20065;-57
2021/09/30 07:52:14;;;;;;;2.33;0.80;;;;;;;;;;4892134;28;20845;-58
2021/09/30 07:54:39;;;;;;;3.90;0.90;;;;;;;;;;4900426;28;20261;-57
2021/09/30 07:57:04;;;;;;;2.73;0.80;;;;;;;;;;4896892;28;20117;-57
2021/09/30 07:59:30;;;;;;;2.67;0.80;;;;;;;;;;4896388;28;20696;-57
2021/09/30 08:01:55;;;;;;;5.43;0.97;;;;;;;;;;4890599;28;20072;-57
2021/09/30 08:04:20;;;;;;;4.73;0.80;;;;;;;;;;4888902;28;21832;-57
2021/09/30 08:06:45;;;;;;;3.88;0.77;;;;;;;;;;4889697;28;20314;-58
2021/09/30 08:09:11;;;;;;;4.77;0.90;;;;;;;;;;4885472;28;20068;-56
2021/09/30 08:11:36;;;;;;;4.95;1.20;;;;;;;;;;4889264;28;20411;-58
2021/09/30 08:14:02;;;;;;;5.15;1.00;;;;;;;;;;4887797;28;24376;-57
2021/09/30 08:16:27;;;;;;;5.32;0.90;;;;;;;;;;4888888;28;20680;-58
2021/09/30 08:18:53;;;;;;;4.35;1.00;;;;;;;;;;4889116;28;21012;-57
2021/09/30 08:21:18;;;;;;;2.35;0.80;;;;;;;;;;4889082;28;20022;-58
2021/09/30 08:23:44;;;;;;;3.60;0.90;;;;;;;;;;4888230;28;20045;-57
2021/09/30 08:26:10;;;;;;;4.43;0.80;;;;;;;;;;4886415;28;24078;-57
2021/09/30 08:28:36;;;;;;;4.20;0.82;;;;;;;;;;4889133;28;20022;-57
2021/09/30 08:31:02;;;;;;;3.80;0.90;;;;;;;;;;4890628;28;20030;-57
2021/09/30 08:33:27;;;;;;;3.33;0.75;;;;;;;;;;4885983;28;20025;-56
2021/09/30 08:35:52;;;;;;;3.47;1.10;;;;;;;;;;4887520;28;20022;-57
2021/09/30 08:38:18;;;;;;;4.63;1.10;;;;;;;;;;4892652;28;20924;-57
2021/09/30 08:40:43;;;;;;;3.95;1.10;;;;;;;;;;4889734;28;20888;-57
2021/09/30 08:43:08;;;;;;;3.30;0.90;;;;;;;;;;4889016;28;20034;-58
2021/09/30 08:45:34;;;;;;;3.03;0.87;;;;;;;;;;4887000;28;20030;-57
2021/09/30 08:48:03;;;;;;;2.87;0.90;;;;;;;;;;4891032;28;20260;-58
2021/09/30 08:50:32;;;;;;;3.88;1.20;;;;;;;;;;4885222;28;20616;-57
2021/09/30 08:52:58;;;;;;;4.18;1.00;;;;;;;;;;4884954;28;20045;-57
2021/09/30 08:55:23;;;;;;;3.70;1.05;;;;;;;;;;4886153;28;20113;-57
2021/09/30 08:57:49;;;;;;;5.38;0.90;;;;;;;;;;4887629;28;20759;-57
2021/09/30 09:00:16;;;;;;;5.75;1.08;;;;;;;;;;4890126;28;20032;-57
2021/09/30 09:02:51;;;;;;;4.38;1.10;;;;;;;;;;4888542;28;20905;-57
2021/09/30 09:05:17;;;;;;;6.72;1.20;;;;;;;;;;4887398;28;20906;-57
2021/09/30 09:08:02;;;;;;;3.25;0.90;;;;;;;;;;4888227;28;20255;-57
2021/09/30 09:10:32;;;;;;;3.03;0.75;;;;;;;;;;4891208;28;20443;-57
2021/09/30 09:13:08;;;;;;;5.90;1.00;;;;;;;;;;4891675;28;20038;-59
2021/09/30 09:15:40;;;;;;;4.15;1.05;;;;;;;;;;4886726;28;20049;-57
2021/09/30 09:18:18;;;;;;;3.22;0.90;;;;;;;;;;4888839;28;20823;-57
2021/09/30 09:20:44;;;;;;;4.63;1.27;;;;;;;;;;4888947;28;20071;-56
2021/09/30 09:23:10;;;;;;;5.15;1.05;;;;;;;;;;4887554;28;20675;-57
2021/09/30 09:25:35;;;;;;;5.05;1.10;;;;;;;;;;4889234;28;20564;-57
2021/09/30 09:28:01;;;;;;;3.67;1.10;;;;;;;;;;4888104;28;20730;-57
2021/09/30 09:30:29;;;;;;;3.30;0.90;;;;;;;;;;4889107;28;20040;-56
2021/09/30 09:33:00;;;;;;;3.60;0.90;;;;;;;;;;4890598;28;20342;-57
2021/09/30 09:35:26;;;;;;;4.20;1.05;;;;;;;;;;4889050;28;20060;-57
2021/09/30 09:37:52;;;;;;;3.63;1.30;;;;;;;;;;4900941;28;20038;-56
2021/09/30 09:40:19;;;;;;;2.75;1.00;;;;;;;;;;4884111;28;20038;-57
2021/09/30 09:42:45;;;;;;;2.95;0.98;;;;;;;;;;4887565;28;20643;-56
2021/09/30 09:45:13;;;;;;;3.88;0.90;;;;;;;;;;4887363;28;20017;-57
2021/09/30 09:47:39;;;;;;;4.03;1.40;;;;;;;;;;4892006;28;20032;-57
2021/09/30 09:50:14;;;;;;;4.72;1.20;;;;;;;;;;4891843;28;20029;-57
2021/09/30 09:52:43;;;;;;;4.03;1.15;;;;;;;;;;4891526;28;20875;-57
2021/09/30 09:55:10;;;;;;;3.40;1.10;;;;;;;;;;4890479;28;20092;-57
2021/09/30 09:57:40;;;;;;;4.63;1.52;;;;;;;;;;4891892;28;20431;-57
2021/09/30 10:00:16;;;;;;;3.03;1.10;;;;;;;;;;4890862;28;20044;-57
2021/09/30 10:02:41;;;;;;;6.70;1.60;;;;;;;;;;4890527;28;20037;-59
2021/09/30 10:05:06;;;;;;;4.68;1.10;;;;;;;;;;4906159;28;20026;-59
2021/09/30 10:07:32;;;;;;;4.13;1.10;;;;;;;;;;4889179;28;20036;-59
2021/09/30 10:09:57;;;;;;;4.20;0.95;;;;;;;;;;4886987;28;20236;-59
2021/09/30 10:12:22;;;;;;;4.95;1.10;;;;;;;;;;4895478;28;20044;-58
2021/09/30 10:14:47;;;;;;;3.05;0.88;;;;;;;;;;4889918;28;20030;-59
2021/09/30 10:17:13;;;;;;;2.90;1.00;;;;;;;;;;4893821;28;20038;-61
2021/09/30 10:19:39;;;;;;;3.50;1.20;;;;;;;;;;4888769;28;20152;-59
2021/09/30 10:22:04;;;;;;;3.20;1.05;;;;;;;;;;4892724;28;20121;-59
2021/09/30 10:24:29;;;;;;;4.30;1.20;;;;;;;;;;4893309;28;20093;-58
2021/09/30 10:26:56;;;;;;;3.23;1.20;;;;;;;;;;4889542;28;20033;-59
2021/09/30 10:29:33;;;;;;;4.45;1.23;;;;;;;;;;4894956;28;20669;-58
2021/09/30 10:31:59;;;;;;;4.43;1.40;;;;;;;;;;4894835;28;20077;-59
2021/09/30 10:34:34;;;;;;;3.67;1.30;;;;;;;;;;4892240;28;20108;-58
2021/09/30 10:37:20;;;;;;;4.35;1.42;;;;;;;;;;4892468;28;20293;-58
2021/09/30 10:40:05;;;;;;;5.20;1.60;;;;;;;;;;4896406;28;20180;-59
2021/09/30 10:42:36;;;;;;;3.97;1.30;;;;;;;;;;4895211;28;20053;-59
2021/09/30 10:45:15;;;;;;;4.43;1.25;;;;;;;;;;4907589;28;20045;-59
2021/09/30 10:47:40;;;;;;;4.65;1.50;;;;;;;;;;4895263;28;20053;-59
2021/09/30 10:50:06;;;;;;;4.00;1.55;;;;;;;;;;4887563;28;20153;-59
2021/09/30 10:52:48;;;;;;;3.30;1.30;;;;;;;;;;4892550;28;21434;-60
2021/09/30 10:55:14;;;;;;;4.88;1.40;;;;;;;;;;4895612;28;21216;-59
2021/09/30 10:57:41;;;;;;;5.07;1.23;;;;;;;;;;4887568;28;20018;-58
2021/09/30 11:00:30;;;;;;;4.57;1.25;;;;;;;;;;4889605;28;20813;-58
2021/09/30 11:03:11;;;;;;;3.83;1.10;;;;;;;;;;4885214;28;20125;-59
2021/09/30 11:05:37;;;;;;;3.78;1.08;;;;;;;;;;4888029;28;20480;-60
2021/09/30 11:08:26;;;;;;;3.38;1.08;;;;;;;;;;4908009;28;20036;-59
2021/09/30 11:11:06;;;;;;;4.17;1.20;;;;;;;;;;4889600;28;20053;-60
2021/09/30 11:13:35;;;;;;;2.95;1.08;;;;;;;;;;4890094;28;20030;-59
2021/09/30 11:16:16;;;;;;;3.80;1.40;;;;;;;;;;4893803;28;20476;-60
2021/09/30 11:18:47;;;;;;;3.78;1.38;;;;;;;;;;4892930;28;20100;-60
2021/09/30 11:21:27;;;;;;;3.67;1.10;;;;;;;;;;4889142;28;20496;-58
2021/09/30 11:23:55;;;;;;;4.68;1.27;;;;;;;;;;4893192;28;20566;-60
2021/09/30 11:26:20;;;;;;;4.10;1.40;;;;;;;;;;4893448;28;20022;-60
2021/09/30 11:28:46;;;;;;;3.30;1.10;;;;;;;;;;4890909;28;20442;-60
2021/09/30 11:31:26;;;;;;;5.18;1.10;;;;;;;;;;4890918;28;20030;-59
2021/09/30 11:33:52;;;;;;;3.72;1.50;;;;;;;;;;4894258;28;20052;-62
2021/09/30 11:36:18;;;;;;;5.35;1.73;;;;;;;;;;4905327;28;21785;-61
2021/09/30 11:38:43;;;;;;;4.30;1.85;;;;;;;;;;4895158;28;20032;-61
2021/09/30 11:41:09;;;;;;;6.32;2.50;;;;;;;;;;4889814;28;20037;-61
2021/09/30 11:43:35;;;;;;;6.18;2.90;;;;;;;;;;4892255;28;20405;-61
2021/09/30 11:46:19;;;;;;;4.90;2.63;;;;;;;;;;4903688;28;20026;-61
2021/09/30 11:48:53;;;;;;;6.63;2.85;;;;;;;;;;4892353;28;20554;-61
2021/09/30 11:51:19;;;;;;;6.63;2.97;;;;;;;;;;4891084;28;20543;-61
2021/09/30 11:53:44;;;;;;;5.43;2.80;;;;;;;;;;4890438;28;20068;-62
2021/09/30 11:56:10;;;;;;;5.73;2.63;;;;;;;;;;4891220;28;20253;-61
2021/09/30 11:58:35;;;;;;;6.20;2.90;;;;;;;;;;4889573;28;20265;-61
2021/09/30 12:01:01;;;;;;;5.83;2.77;;;;;;;;;;4891043;28;20590;-61
2021/09/30 12:03:26;;;;;;;5.22;2.28;;;;;;;;;;4887572;28;20280;-62
2021/09/30 12:05:53;;;;;;;6.72;2.50;;;;;;;;;;4886941;28;20386;-62
2021/09/30 12:08:18;;;;;;;5.43;2.85;;;;;;;;;;4887696;28;20662;-62
2021/09/30 12:10:44;;;;;;;6.23;2.60;;;;;;;;;;4891135;28;20568;-62
2021/09/30 12:13:12;;;;;;;4.95;2.42;;;;;;;;;;4889220;28;21139;-62
2021/09/30 12:15:37;;;;;;;4.78;2.45;;;;;;;;;;4886854;28;20511;-62
2021/09/30 12:18:14;;;;;;;5.78;2.50;;;;;;;;;;4889566;28;20029;-61
2021/09/30 12:20:45;;;;;;;6.50;2.83;;;;;;;;;;4887821;28;20046;-60
2021/09/30 12:23:11;;;;;;;5.40;2.85;;;;;;;;;;4888602;28;20218;-60
2021/09/30 12:25:36;;;;;;;8.10;2.97;;;;;;;;;;4886213;28;24160;-60
2021/09/30 12:28:01;;;;;;;5.30;2.70;;;;;;;;;;4884998;28;20030;-60
2021/09/30 12:30:28;;;;;;;6.50;2.80;;;;;;;;;;4886948;28;20287;-61
2021/09/30 12:33:00;;;;;;;5.95;3.22;;;;;;;;;;4886037;28;20883;-61
2021/09/30 12:35:28;;;;;;;6.78;3.13;;;;;;;;;;4884497;28;20770;-61
2021/09/30 12:37:54;;;;;;;7.22;3.55;;;;;;;;;;4881919;28;20874;-60
2021/09/30 12:40:26;;;;;;;6.53;3.40;;;;;;;;;;4889756;28;20113;-61
2021/09/30 12:43:08;;;;;;;7.50;3.15;;;;;;;;;;4884102;28;20468;-61
2021/09/30 12:45:36;;;;;;;5.95;3.20;;;;;;;;;;4870736;28;20116;-61
2021/09/30 12:48:02;;;;;;;5.65;3.40;;;;;;;;;;4870083;28;20203;-61
2021/09/30 12:50:33;;;;;;;7.40;2.92;;;;;;;;;;4867325;28;20075;-61
2021/09/30 12:53:03;;;;;;;6.97;3.08;;;;;;;;;;4871780;28;20092;-61
2021/09/30 12:55:29;;;;;;;6.75;3.20;;;;;;;;;;4869343;28;20038;-61
2021/09/30 12:57:55;;;;;;;5.95;3.33;;;;;;;;;;4861602;28;20118;-61
2021/09/30 13:00:21;;;;;;;5.95;3.13;;;;;;;;;;4869814;28;20036;-62
2021/09/30 13:02:47;;;;;;;5.55;3.42;;;;;;;;;;4872486;28;20545;-62
2021/09/30 13:05:13;;;;;;;5.30;3.28;;;;;;;;;;4870549;28;23526;-60
2021/09/30 13:07:46;;;;;;;6.47;3.42;;;;;;;;;;4870608;28;20731;-61
2021/09/30 13:10:11;;;;;;;6.10;3.20;;;;;;;;;;4868787;28;20048;-62
2021/09/30 13:12:37;;;;;;;5.85;3.03;;;;;;;;;;4868914;28;20030;-62
2021/09/30 13:15:04;;;;;;;7.53;3.50;;;;;;;;;;4884684;28;20216;-60
2021/09/30 13:17:30;;;;;;;6.00;3.40;;;;;;;;;;4872120;28;20014;-61
2021/09/30 13:20:00;;;;;;;7.18;3.22;;;;;;;;;;4870599;28;20808;-60
2021/09/30 13:22:25;;;;;;;;;;;;;;;;;;4876758;28;24241;-60
2021/09/30 13:24:52;;;;;;;6.97;3.13;;;;;;;;;;4872390;28;19924;-60
2021/09/30 13:27:18;;;;;;;6.63;3.25;;;;;;;;;;4874461;28;21280;-60
2021/09/30 13:29:44;;;;;;;6.55;3.90;;;;;;;;;;4872616;28;20034;-65
2021/09/30 13:32:10;;;;;;;6.15;3.53;;;;;;;;;;4873706;28;20459;-64
2021/09/30 13:34:35;;;;;;;8.02;3.95;;;;;;;;;;4869998;28;21590;-63
2021/09/30 13:37:01;;;;;;;6.88;3.80;;;;;;;;;;4874153;28;20034;-65
2021/09/30 13:39:26;;;;;;;8.43;3.65;;;;;;;;;;4870068;28;20494;-64
2021/09/30 13:41:51;;;;;;;6.72;3.47;;;;;;;;;;4871448;28;21492;-65
2021/09/30 13:44:17;;;;;;;7.88;3.25;;;;;;;;;;4872312;28;20038;-65
2021/09/30 13:46:42;;;;;;;8.13;3.83;;;;;;;;;;4872301;28;23610;-65
2021/09/30 13:49:07;;;;;;;7.80;3.90;;;;;;;;;;4876325;28;20766;-66
2021/09/30 13:51:33;;;;;;;7.93;3.75;;;;;;;;;;4873407;28;20541;-66
2021/09/30 13:53:58;;;;;;;8.30;3.90;;;;;;;;;;4872104;28;20042;-65
2021/09/30 13:56:25;;;;;;;7.60;3.78;;;;;;;;;;4876310;28;20041;-65
2021/09/30 13:58:50;;;;;;;8.18;3.80;;;;;;;;;;4872591;28;20029;-66
2021/09/30 14:01:16;;;;;;;7.43;3.78;;;;;;;;;;4876844;28;21207;-65
2021/09/30 14:03:41;;;;;;;6.60;3.80;;;;;;;;;;4873839;28;20041;-66
2021/09/30 14:06:06;;;;;;;6.80;3.80;;;;;;;;;;4886760;28;20688;-66
2021/09/30 14:08:33;;;;;;;6.57;3.85;;;;;;;;;;4869082;28;20964;-64
2021/09/30 14:10:58;;;;;;;8.18;3.50;;;;;;;;;;4866756;28;20037;-67
2021/09/30 14:13:23;;;;;;;8.23;3.92;;;;;;;;;;4872613;28;20916;-66
2021/09/30 14:15:48;;;;;;;6.88;4.10;;;;;;;;;;4875420;28;20693;-65
2021/09/30 14:18:14;;;;;;;7.37;4.20;;;;;;;;;;4871501;28;20565;-66
2021/09/30 14:20:39;;;;;;;6.30;3.77;;;;;;;;;;4869248;28;20569;-66
2021/09/30 14:23:05;;;;;;;5.75;3.30;;;;;;;;;;4871955;28;20292;-64
2021/09/30 14:25:30;;;;;;;6.63;3.70;;;;;;;;;;4868925;28;20029;-66
2021/09/30 14:27:56;;;;;;;5.68;3.75;;;;;;;;;;4878422;28;20472;-66
2021/09/30 14:30:21;;;;;;;7.13;4.03;;;;;;;;;;4871873;28;20050;-65
2021/09/30 14:32:49;;;;;;;7.32;4.00;;;;;;;;;;4874596;28;20152;-66
2021/09/30 14:35:17;;;;;;;8.63;3.90;;;;;;;;;;4874852;28;20298;-65
2021/09/30 14:37:43;;;;;;;7.68;4.22;;;;;;;;;;4871834;28;20928;-66
2021/09/30 14:40:08;;;;;;;7.30;3.63;;;;;;;;;;4870687;28;20034;-66
2021/09/30 14:42:34;;;;;;;8.93;3.80;;;;;;;;;;4867913;28;20594;-65
2021/09/30 14:44:59;;;;;;;6.57;3.70;;;;;;;;;;4874990;28;20152;-65
2021/09/30 14:47:24;;;;;;;6.07;3.90;;;;;;;;;;4874759;28;20030;-66
2021/09/30 14:49:49;;;;;;;6.88;3.75;;;;;;;;;;4875721;28;20095;-65
2021/09/30 14:52:17;;;;;;;7.63;3.78;;;;;;;;;;4868824;28;24364;-65
2021/09/30 14:54:42;;;;;;;6.40;3.90;;;;;;;;;;4866062;28;20102;-65
2021/09/30 14:57:07;;;;;;;6.22;3.88;;;;;;;;;;4872270;28;20579;-64
2021/09/30 14:59:33;;;;;;;8.02;4.45;;;;;;;;;;4880590;28;20060;-64
2021/09/30 15:01:58;;;;;;;7.32;4.05;;;;;;;;;;4872307;28;20958;-65
2021/09/30 15:04:24;;;;;;;6.90;3.80;;;;;;;;;;4871136;28;20562;-65
2021/09/30 15:06:49;;;;;;;7.30;3.90;;;;;;;;;;4873637;28;20117;-64
2021/09/30 15:09:14;;;;;;;7.28;3.80;;;;;;;;;;4873312;28;20439;-65
2021/09/30 15:11:40;;;;;;;7.23;4.07;;;;;;;;;;4873583;28;21777;-65
2021/09/30 15:14:06;;;;;;;6.38;3.80;;;;;;;;;;4887370;28;20755;-61
2021/09/30 15:16:34;;;;;;;6.57;4.07;;;;;;;;;;4873737;28;20150;-60
2021/09/30 15:19:04;;;;;;;6.50;4.38;;;;;;;;;;4872180;28;20298;-60
2021/09/30 15:21:30;;;;;;;7.28;3.63;;;;;;;;;;4875231;28;20520;-61
2021/09/30 15:23:57;;;;;;;9.00;4.38;;;;;;;;;;4865273;28;20229;-60
2021/09/30 15:26:23;;;;;;;8.40;4.20;;;;;;;;;;4866448;28;20958;-60
2021/09/30 15:28:50;;;;;;;7.55;3.85;;;;;;;;;;4870247;28;20108;-61
2021/09/30 15:31:16;;;;;;;10.40;4.60;;;;;;;;;;4871945;28;20503;-60
2021/09/30 15:33:41;;;;;;;6.68;3.90;;;;;;;;;;4866726;28;20144;-60
2021/09/30 15:36:09;;;;;;;6.63;3.78;;;;;;;;;;4871257;28;20026;-59
2021/09/30 15:38:34;;;;;;;6.88;4.43;;;;;;;;;;4870109;28;23578;-61
2021/09/30 15:41:02;;;;;;;7.07;3.70;;;;;;;;;;4867994;28;20062;-61
2021/09/30 15:43:27;;;;;;;7.00;3.88;;;;;;;;;;4869158;28;20038;-61
2021/09/30 15:45:54;;;;;;;8.30;4.47;;;;;;;;;;4868707;28;20915;-60
2021/09/30 15:48:19;;;;;;;9.13;4.10;;;;;;;;;;4868239;28;20056;-60
2021/09/30 15:50:44;;;;;;;6.60;4.37;;;;;;;;;;4869051;28;20318;-60
2021/09/30 15:53:10;;;;;;;7.23;3.90;;;;;;;;;;4867835;28;20053;-60
2021/09/30 15:55:35;;;;;;;7.87;4.53;;;;;;;;;;4866468;28;20654;-60
2021/09/30 15:58:00;;;;;;;6.00;4.00;;;;;;;;;;4868763;28;20148;-59
2021/09/30 16:00:26;;;;;;;6.93;4.53;;;;;;;;;;4864787;28;20032;-60
2021/09/30 16:02:51;;;;;;;7.82;4.50;;;;;;;;;;4869263;28;20136;-60
2021/09/30 16:05:16;;;;;;;6.60;4.43;;;;;;;;;;4868412;28;20688;-61
2021/09/30 16:07:42;;;;;;;7.25;4.30;;;;;;;;;;4871105;28;21001;-60
2021/09/30 16:10:07;;;;;;;7.22;4.20;;;;;;;;;;4873103;28;21133;-61
2021/09/30 16:12:32;;;;;;;7.70;4.63;;;;;;;;;;4871672;28;20359;-60
2021/09/30 16:14:58;;;;;;;8.17;4.77;;;;;;;;;;4866489;28;21790;-61
2021/09/30 16:17:23;;;;;;;7.28;4.85;;;;;;;;;;4865574;28;20067;-61
2021/09/30 16:19:51;;;;;;;12.03;5.27;;;;;;;;;;4871348;28;20615;-61
2021/09/30 16:22:17;;;;;;;7.78;4.95;;;;;;;;;;4882340;28;20149;-61
2021/09/30 16:24:42;;;;;;;9.40;5.22;;;;;;;;;;4864748;28;20779;-60
2021/09/30 16:27:07;;;;;;;7.53;4.97;;;;;;;;;;4866696;28;20370;-59
2021/09/30 16:29:32;;;;;;;10.43;5.33;;;;;;;;;;4873359;28;21160;-60
2021/09/30 16:31:58;;;;;;;9.15;6.10;;;;;;;;;;4853707;28;20264;-60
2021/09/30 16:34:23;;;;;;;8.95;5.97;;;;;;;;;;4864762;28;20037;-62
2021/09/30 16:36:48;;;;;;;10.43;6.03;;;;;;;;;;4857770;28;20060;-61
2021/09/30 16:39:14;;;;;;;9.17;5.97;;;;;;;;;;4855325;28;20037;-61
2021/09/30 16:41:39;;;;;;;8.65;5.57;;;;;;;;;;4858754;28;20291;-61
2021/09/30 16:44:05;;;;;;;12.20;6.30;;;;;;;;;;4873224;28;20677;-61
2021/09/30 16:46:30;;;;;;;9.95;6.53;;;;;;;;;;4863639;28;20052;-60
2021/09/30 16:48:55;;;;;;;9.13;6.13;;;;;;;;;;4866475;28;20037;-60
2021/09/30 16:51:21;;;;;;;11.70;6.43;;;;;;;;;;4857080;28;20607;-61
2021/09/30 16:53:47;;;;;;;10.50;7.60;;;;;;;;;;4859297;28;20322;-61
2021/09/30 16:56:14;;;;;;;12.13;7.05;;;;;;;;;;4858616;28;20367;-66
2021/09/30 16:58:40;;;;;;;11.43;7.15;;;;;;;;;;4851003;28;20037;-61
2021/09/30 17:01:05;;;;;;;11.33;6.90;;;;;;;;;;4859113;28;20933;-62
2021/09/30 17:03:30;;;;;;;9.67;6.67;;;;;;;;;;4868301;28;20299;-60
2021/09/30 17:05:55;;;;;;;10.02;6.75;;;;;;;;;;4856859;28;20562;-60
2021/09/30 17:08:21;;;;;;;11.50;6.97;;;;;;;;;;4863223;28;20030;-61
2021/09/30 17:10:46;;;;;;;11.07;7.20;;;;;;;;;;4886594;28;21331;-61
2021/09/30 17:13:11;;;;;;;11.07;7.53;;;;;;;;;;4864312;28;23829;-60
2021/09/30 17:15:37;;;;;;;17.60;7.55;;;;;;;;;;4859560;28;20272;-61
2021/09/30 17:18:03;;;;;;;9.02;5.68;;;;;;;;;;4863589;28;20448;-66
2021/09/30 17:20:29;;;;;;;9.32;5.38;;;;;;;;;;4883719;28;20100;-66
2021/09/30 17:22:55;;;;;;;7.47;5.10;;;;;;;;;;4867503;28;23985;-67
2021/09/30 17:25:20;;;;;;;8.57;5.05;;;;;;;;;;4862667;28;20042;-66
2021/09/30 17:27:46;;;;;;;8.50;5.18;;;;;;;;;;4867739;28;20068;-67
2021/09/30 17:30:13;;;;;;;8.05;4.90;;;;;;;;;;4863584;28;20038;-66
2021/09/30 17:32:39;;;;;;;8.00;4.57;;;;;;;;;;4869846;28;20378;-66
2021/09/30 17:35:05;;;;;;;7.90;4.43;;;;;;;;;;4860748;28;20152;-66
2021/09/30 17:37:31;;;;;;;7.97;4.75;;;;;;;;;;4881388;28;20022;-66
2021/09/30 17:39:56;;;;;;;9.02;5.50;;;;;;;;;;4863831;28;20107;-66
2021/09/30 17:42:22;;;;;;;12.45;5.40;;;;;;;;;;4862648;28;20033;-66
2021/09/30 17:44:48;;;;;;;8.27;4.93;;;;;;;;;;4868459;28;20038;-66